createdAt,value
2024-05-09T00:01:42.386Z,109.00
2024-05-09T00:04:12.899Z,105.03
2024-05-09T00:06:43.354Z,111.15
2024-05-09T00:09:14.099Z,110.00
2024-05-09T00:11:49.992Z,102.10
2024-05-09T00:14:20.483Z,111.35
2024-05-09T00:16:51.287Z,107.70
2024-05-09T00:19:24.826Z,108.65
2024-05-09T00:21:55.694Z,105.93
2024-05-09T00:24:26.022Z,98.97
2024-05-09T00:26:59.094Z,99.63
2024-05-09T00:29:31.682Z,98.72
2024-05-09T00:32:02.203Z,107.45
2024-05-09T00:34:32.752Z,103.60
2024-05-09T00:37:03.316Z,101.30
2024-05-09T00:39:36.088Z,101.50
2024-05-09T00:42:09.212Z,101.40
2024-05-09T00:44:39.894Z,101.32
2024-05-09T00:47:11.541Z,97.13
2024-05-09T00:49:42.550Z,100.15
2024-05-09T00:52:13.351Z,101.40
2024-05-09T00:54:43.761Z,91.00
2024-05-09T00:57:17.172Z,94.05
2024-05-09T00:59:47.672Z,97.80
2024-05-09T01:02:20.061Z,99.15
2024-05-09T01:04:50.708Z,92.13
2024-05-09T01:07:21.136Z,95.88
2024-05-09T01:09:53.749Z,99.90
2024-05-09T01:12:27.563Z,90.53
2024-05-09T01:14:58.095Z,91.82
2024-05-09T01:17:31.358Z,90.28
2024-05-09T01:20:01.945Z,100.32
2024-05-09T01:22:33.374Z,98.57
2024-05-09T01:25:06.745Z,95.40
2024-05-09T01:27:37.157Z,92.60
2024-05-09T01:30:11.946Z,99.03
2024-05-09T01:32:45.265Z,91.20
2024-05-09T01:35:16.054Z,100.18
2024-05-09T01:37:46.588Z,99.07
2024-05-09T01:40:28.687Z,98.38
2024-05-09T01:43:06.179Z,98.85
2024-05-09T01:45:36.699Z,93.03
2024-05-09T01:48:08.138Z,98.85
2024-05-09T01:50:41.740Z,93.47
2024-05-09T01:53:15.321Z,95.05
2024-05-09T01:55:48.612Z,93.72
2024-05-09T01:58:19.586Z,97.60
2024-05-09T02:00:50.066Z,92.65
2024-05-09T02:03:23.413Z,98.00
2024-05-09T02:05:53.829Z,90.05
2024-05-09T02:08:24.945Z,93.82
2024-05-09T02:10:58.151Z,82.40
2024-05-09T02:13:28.574Z,95.18
2024-05-09T02:15:59.393Z,94.60
2024-05-09T02:18:29.888Z,92.28
2024-05-09T02:21:00.500Z,84.97
2024-05-09T02:23:31.067Z,84.22
2024-05-09T02:26:04.197Z,86.43
2024-05-09T02:28:34.568Z,90.97
2024-05-09T02:31:04.967Z,91.15
2024-05-09T02:33:37.862Z,85.70
2024-05-09T02:36:10.444Z,84.88
2024-05-09T02:38:39.056Z,89.22
2024-05-09T02:41:14.841Z,81.67
2024-05-09T02:43:42.582Z,83.03
2024-05-09T02:46:12.961Z,83.78
2024-05-09T02:48:43.474Z,87.50
2024-05-09T02:51:14.460Z,89.68
2024-05-09T02:53:44.889Z,88.27
2024-05-09T02:56:15.407Z,82.68
2024-05-09T02:58:45.835Z,85.53
2024-05-09T03:01:13.797Z,80.93
2024-05-09T03:03:48.588Z,84.85
2024-05-09T03:06:16.463Z,82.70
2024-05-09T03:08:48.393Z,85.13
2024-05-09T03:11:25.741Z,86.43
2024-05-09T03:13:58.693Z,76.45
2024-05-09T03:16:26.412Z,77.25
2024-05-09T03:18:57.487Z,83.77
2024-05-09T03:21:27.596Z,83.93
2024-05-09T03:24:01.389Z,86.00
2024-05-09T03:26:31.824Z,77.03
2024-05-09T03:29:04.837Z,81.32
2024-05-09T03:31:32.626Z,79.20
2024-05-09T03:34:05.477Z,73.55
2024-05-09T03:36:33.378Z,86.65
2024-05-09T03:39:03.704Z,81.20
2024-05-09T03:41:36.848Z,76.35
2024-05-09T03:44:05.400Z,71.83
2024-05-09T03:46:40.114Z,85.35
2024-05-09T03:49:08.377Z,82.78
2024-05-09T03:51:41.161Z,85.05
2024-05-09T03:54:11.079Z,79.50
2024-05-09T03:56:44.173Z,77.07
2024-05-09T03:59:12.019Z,83.85
2024-05-09T04:01:42.634Z,83.60
2024-05-09T04:04:10.536Z,77.25
2024-05-09T04:06:43.225Z,75.25
2024-05-09T04:09:11.027Z,79.87
2024-05-09T04:11:44.234Z,75.65
2024-05-09T04:14:12.063Z,75.45
2024-05-09T04:16:44.886Z,77.45
2024-05-09T04:19:12.700Z,80.53
2024-05-09T04:21:45.619Z,78.80
2024-05-09T04:24:13.353Z,87.85
2024-05-09T04:26:48.837Z,91.93
2024-05-09T04:29:16.632Z,87.10
2024-05-09T04:31:49.273Z,89.95
2024-05-09T04:34:17.358Z,84.60
2024-05-09T04:36:47.875Z,88.15
2024-05-09T04:39:15.656Z,92.60
2024-05-09T04:41:50.892Z,92.95
2024-05-09T04:44:18.634Z,92.85
2024-05-09T04:46:50.404Z,92.83
2024-05-09T04:49:18.676Z,90.82
2024-05-09T04:51:49.573Z,97.22
2024-05-09T04:54:29.535Z,96.63
2024-05-09T04:57:07.578Z,108.00
2024-05-09T04:59:36.570Z,106.30
2024-05-09T05:02:07.893Z,101.95
2024-05-09T05:04:35.987Z,109.22
2024-05-09T05:07:06.941Z,105.18
2024-05-09T05:09:34.871Z,102.55
2024-05-09T05:12:29.279Z,112.93
2024-05-09T05:14:57.281Z,115.95
2024-05-09T05:17:28.260Z,113.05
2024-05-09T05:19:56.965Z,113.90
2024-05-09T05:22:27.600Z,114.43
2024-05-09T05:24:57.473Z,111.67
2024-05-09T05:27:31.092Z,113.32
2024-05-09T05:29:58.858Z,112.82
2024-05-09T05:32:29.440Z,130.25
2024-05-09T05:35:00.013Z,128.32
2024-05-09T05:37:30.436Z,124.63
2024-05-09T05:39:58.426Z,128.90
2024-05-09T05:42:31.633Z,123.35
2024-05-09T05:44:59.486Z,129.68
2024-05-09T05:47:30.113Z,130.55
2024-05-09T05:49:57.987Z,129.97
2024-05-09T05:52:28.418Z,138.95
2024-05-09T05:54:56.179Z,141.75
2024-05-09T05:57:26.627Z,136.75
2024-05-09T05:59:57.197Z,132.18
2024-05-09T06:02:27.702Z,143.63
2024-05-09T06:04:55.715Z,144.15
2024-05-09T06:07:26.175Z,148.30
2024-05-09T06:09:54.031Z,150.23
2024-05-09T06:12:26.995Z,141.73
2024-05-09T06:14:57.439Z,146.43
2024-05-09T06:17:27.897Z,142.90
2024-05-09T06:19:55.936Z,157.32
2024-05-09T06:22:26.763Z,156.63
2024-05-09T06:24:54.527Z,154.27
2024-05-09T06:27:25.102Z,153.80
2024-05-09T06:29:52.881Z,161.68
2024-05-09T06:32:28.244Z,152.27
2024-05-09T06:34:58.310Z,155.88
2024-05-09T06:37:28.759Z,164.57
2024-05-09T06:39:58.659Z,166.53
2024-05-09T06:42:29.122Z,166.63
2024-05-09T06:44:57.125Z,162.38
2024-05-09T06:47:30.387Z,172.23
2024-05-09T06:49:58.306Z,169.23
2024-05-09T06:52:28.694Z,161.60
2024-05-09T06:54:56.474Z,168.50
2024-05-09T06:57:26.901Z,164.55
2024-05-09T07:02:30.111Z,164.38
2024-05-09T07:04:57.956Z,176.82
2024-05-09T07:07:28.384Z,176.50
2024-05-09T07:09:56.228Z,183.55
2024-05-09T07:12:28.936Z,187.75
2024-05-09T07:14:57.290Z,183.20
2024-05-09T07:17:30.497Z,184.50
2024-05-09T07:19:58.647Z,183.97
2024-05-09T07:22:29.687Z,180.27
2024-05-09T07:24:57.383Z,192.20
2024-05-09T07:27:30.026Z,190.57
2024-05-09T07:30:00.960Z,192.52
2024-05-09T07:32:34.176Z,195.10
2024-05-09T07:35:05.046Z,185.32
2024-05-09T07:37:35.430Z,190.55
2024-05-09T07:40:07.714Z,197.63
2024-05-09T07:42:38.165Z,203.05
2024-05-09T07:45:24.236Z,199.40
2024-05-09T07:53:36.210Z,199.55
2024-05-09T07:55:55.740Z,198.10
2024-05-09T07:58:27.890Z,200.57
2024-05-09T08:00:58.590Z,217.50
2024-05-09T08:03:29.115Z,217.40
2024-05-09T08:05:59.605Z,211.90
2024-05-09T08:08:27.328Z,227.02
2024-05-09T08:10:57.886Z,216.63
2024-05-09T08:13:25.689Z,215.98
2024-05-09T08:15:56.099Z,220.52
2024-05-09T08:18:24.006Z,217.40
2024-05-09T08:20:59.599Z,224.63
2024-05-09T08:23:28.652Z,222.10
2024-05-09T08:25:59.155Z,220.85
2024-05-09T08:28:27.032Z,221.68
2024-05-09T08:31:01.642Z,234.88
2024-05-09T08:33:32.404Z,231.63
2024-05-09T08:36:08.198Z,230.33
2024-05-09T08:38:38.424Z,232.75
2024-05-09T08:41:11.370Z,231.25
2024-05-09T08:43:44.444Z,226.75
2024-05-09T08:46:15.857Z,225.07
2024-05-09T08:48:45.794Z,232.67
2024-05-09T08:51:19.341Z,229.38
2024-05-09T08:53:47.174Z,234.45
2024-05-09T08:56:19.071Z,230.48
2024-05-09T08:58:49.363Z,243.10
2024-05-09T09:01:21.842Z,233.43
2024-05-09T09:03:53.601Z,233.75
2024-05-09T09:06:29.202Z,244.70
2024-05-09T09:08:59.006Z,236.70
2024-05-09T09:11:29.429Z,243.02
2024-05-09T09:13:57.193Z,236.43
2024-05-09T09:16:36.600Z,235.40
2024-05-09T09:19:05.030Z,237.60
2024-05-09T09:21:40.695Z,234.73
2024-05-09T09:24:10.023Z,250.70
2024-05-09T09:26:42.983Z,234.73
2024-05-09T09:29:10.720Z,239.10
2024-05-09T09:31:42.234Z,250.07
2024-05-09T09:34:10.279Z,236.77
2024-05-09T09:36:47.362Z,235.18
2024-05-09T09:39:18.741Z,245.80
2024-05-09T09:41:51.424Z,247.68
2024-05-09T09:44:23.185Z,248.15
2024-05-09T09:46:54.344Z,250.55
2024-05-09T09:49:23.482Z,252.48
2024-05-09T09:51:57.590Z,238.40
2024-05-09T09:54:28.075Z,244.25
2024-05-09T09:56:59.342Z,245.80
2024-05-09T09:59:28.127Z,248.85
2024-05-09T10:02:01.021Z,255.70
2024-05-09T10:04:32.270Z,249.70
2024-05-09T10:07:11.211Z,252.90
2024-05-09T10:09:39.420Z,253.38
2024-05-09T10:12:14.260Z,247.15
2024-05-09T10:14:48.117Z,246.75
2024-05-09T10:17:18.980Z,247.17
2024-05-09T10:19:47.234Z,250.95
2024-05-09T10:22:30.980Z,260.75
2024-05-09T10:25:06.785Z,268.67
2024-05-09T10:27:37.642Z,266.33
2024-05-09T10:30:14.431Z,257.93
2024-05-09T10:32:48.358Z,261.38
2024-05-09T10:35:19.606Z,268.95
2024-05-09T10:37:53.631Z,259.05
2024-05-09T10:40:29.351Z,278.75
2024-05-09T10:43:05.832Z,256.03
2024-05-09T10:45:38.778Z,262.77
2024-05-09T10:48:08.385Z,268.88
2024-05-09T10:50:43.810Z,265.65
2024-05-09T10:53:14.186Z,274.02
2024-05-09T10:55:47.055Z,266.60
2024-05-09T10:58:18.026Z,253.73
2024-05-09T11:00:52.023Z,265.15
2024-05-09T11:03:24.019Z,250.25
2024-05-09T11:05:55.484Z,263.25
2024-05-09T11:08:31.221Z,248.73
2024-05-09T11:11:03.132Z,251.73
2024-05-09T11:13:32.272Z,255.10
2024-05-09T11:16:03.893Z,255.13
2024-05-09T11:18:36.516Z,252.82
2024-05-09T11:21:15.416Z,251.60
2024-05-09T11:23:46.338Z,269.20
2024-05-09T11:26:19.522Z,271.42
2024-05-09T11:28:47.461Z,255.38
2024-05-09T11:31:18.074Z,259.67
2024-05-09T11:33:47.016Z,238.63
2024-05-09T11:36:18.158Z,254.57
2024-05-09T11:38:48.687Z,253.30
2024-05-09T11:41:22.061Z,258.63
2024-05-09T11:43:49.754Z,262.80
2024-05-09T11:46:20.377Z,253.83
2024-05-09T11:48:50.583Z,259.98
2024-05-09T11:51:21.400Z,255.48
2024-05-09T11:53:51.921Z,260.88
2024-05-09T11:56:22.381Z,254.90
2024-05-09T11:58:50.152Z,264.27
2024-05-09T12:01:25.115Z,262.02
2024-05-09T12:03:55.167Z,263.88
2024-05-09T12:06:25.740Z,257.90
2024-05-09T12:08:56.264Z,267.05
2024-05-09T12:11:26.732Z,270.37
2024-05-09T12:13:57.252Z,260.73
2024-05-09T12:16:27.319Z,271.52
2024-05-09T12:18:58.241Z,257.38
2024-05-09T12:21:26.125Z,273.42
2024-05-09T12:23:59.493Z,260.93
2024-05-09T12:26:28.554Z,252.52
2024-05-09T12:28:58.852Z,260.98
2024-05-09T12:31:29.125Z,249.63
2024-05-09T12:34:00.398Z,262.73
2024-05-09T12:36:28.572Z,260.20
2024-05-09T12:39:01.698Z,266.30
2024-05-09T12:41:29.423Z,271.17
2024-05-09T12:43:59.753Z,258.80
2024-05-09T12:46:27.499Z,279.02
2024-05-09T12:48:58.126Z,261.03
2024-05-09T12:51:26.906Z,259.33
2024-05-09T12:54:02.373Z,282.05
2024-05-09T12:56:30.046Z,259.30
2024-05-09T12:59:00.524Z,267.17
2024-05-09T13:01:28.301Z,262.83
2024-05-09T13:03:58.829Z,260.38
2024-05-09T13:06:26.743Z,275.42
2024-05-09T13:08:57.143Z,278.15
2024-05-09T13:11:27.576Z,281.23
2024-05-09T13:13:58.024Z,267.17
2024-05-09T13:16:25.879Z,281.55
2024-05-09T13:18:56.326Z,273.20
2024-05-09T13:21:24.077Z,269.98
2024-05-09T13:23:56.201Z,262.10
2024-05-09T13:26:27.322Z,254.10
2024-05-09T13:28:57.749Z,257.25
2024-05-09T13:31:27.834Z,261.33
2024-05-09T13:34:00.899Z,254.20
2024-05-09T13:36:28.846Z,254.98
2024-05-09T13:38:59.378Z,243.97
2024-05-09T13:41:29.883Z,253.55
2024-05-09T13:44:00.211Z,265.40
2024-05-09T13:46:27.952Z,256.70
2024-05-09T13:49:00.750Z,258.73
2024-05-09T13:51:28.574Z,248.57
2024-05-09T13:53:59.461Z,249.55
2024-05-09T13:56:29.835Z,252.43
2024-05-09T13:59:00.218Z,237.82
2024-05-09T14:01:27.974Z,250.30
2024-05-09T14:04:00.740Z,239.90
2024-05-09T14:06:28.712Z,241.20
2024-05-09T14:08:59.182Z,233.65
2024-05-09T14:11:29.576Z,229.77
2024-05-09T14:14:00.067Z,244.80
2024-05-09T14:16:29.924Z,239.47
2024-05-09T14:19:01.274Z,246.35
2024-05-09T14:21:31.089Z,247.57
2024-05-09T14:24:01.730Z,246.35
2024-05-09T14:26:32.188Z,242.27
2024-05-09T14:29:02.612Z,239.83
2024-05-09T14:31:30.529Z,239.63
2024-05-09T14:34:01.492Z,241.82
2024-05-09T14:36:29.469Z,240.20
2024-05-09T14:39:00.132Z,235.52
2024-05-09T14:41:27.847Z,238.23
2024-05-09T14:44:00.812Z,235.23
2024-05-09T14:46:28.656Z,241.60
2024-05-09T14:49:00.309Z,232.18
2024-05-09T14:51:28.122Z,249.48
2024-05-09T14:53:58.850Z,234.67
2024-05-09T14:56:26.660Z,233.88
2024-05-09T14:58:57.319Z,238.32
2024-05-09T15:01:31.064Z,230.18
2024-05-09T15:04:01.602Z,241.98
2024-05-09T15:06:29.605Z,234.07
2024-05-09T15:09:03.950Z,225.43
2024-05-09T15:11:31.645Z,225.00
2024-05-09T15:14:02.048Z,226.90
2024-05-09T15:16:32.621Z,225.30
2024-05-09T15:19:03.367Z,225.43
2024-05-09T15:21:31.306Z,228.93
2024-05-09T15:24:01.746Z,232.75
2024-05-09T15:26:29.453Z,232.23
2024-05-09T15:28:59.956Z,226.48
2024-05-09T15:31:27.714Z,232.33
2024-05-09T15:34:00.939Z,229.30
2024-05-09T15:36:28.845Z,232.93
2024-05-09T15:38:59.257Z,235.27
2024-05-09T15:41:27.037Z,238.98
2024-05-09T15:43:59.656Z,228.00
2024-05-09T15:46:27.614Z,227.00
2024-05-09T15:49:00.902Z,236.43
2024-05-09T15:51:28.944Z,230.45
2024-05-09T15:53:59.242Z,236.48
2024-05-09T15:56:27.325Z,222.03
2024-05-09T15:58:57.900Z,228.73
2024-05-09T16:01:25.705Z,230.38
2024-05-09T16:03:56.370Z,228.80
2024-05-09T16:06:26.869Z,226.05
2024-05-09T16:08:57.220Z,219.70
2024-05-09T16:11:24.934Z,227.18
2024-05-09T16:13:55.353Z,223.73
2024-05-09T16:16:23.256Z,229.38
2024-05-09T16:18:54.005Z,227.25
2024-05-09T16:21:21.755Z,225.40
2024-05-09T16:23:57.118Z,226.07
2024-05-09T16:26:24.859Z,225.02
2024-05-09T16:28:55.178Z,217.73
2024-05-09T16:31:25.443Z,219.57
2024-05-09T16:33:56.156Z,225.73
2024-05-09T16:36:26.675Z,217.93
2024-05-09T16:38:57.718Z,218.93
2024-05-09T16:41:28.202Z,214.80
2024-05-09T16:43:58.569Z,214.60
2024-05-09T16:46:28.227Z,208.23
2024-05-09T16:48:58.737Z,211.93
2024-05-09T16:51:28.710Z,210.50
2024-05-09T16:54:01.781Z,206.20
2024-05-09T16:56:29.566Z,203.85
2024-05-09T16:59:02.197Z,214.53
2024-05-09T17:01:30.888Z,202.95
2024-05-09T17:04:01.414Z,212.40
2024-05-09T17:06:29.561Z,218.77
2024-05-09T17:09:08.255Z,217.40
2024-05-09T17:11:42.099Z,217.47
2024-05-09T17:14:09.909Z,212.15
2024-05-09T17:16:40.356Z,215.82
2024-05-09T17:19:10.940Z,200.93
2024-05-09T17:21:38.806Z,215.77
2024-05-09T17:24:11.931Z,205.23
2024-05-09T17:26:39.717Z,208.40
2024-05-09T17:29:13.045Z,212.98
2024-05-09T17:31:40.880Z,210.90
2024-05-09T17:34:11.555Z,213.75
2024-05-09T17:36:39.601Z,204.93
2024-05-09T17:39:12.735Z,206.10
2024-05-09T17:41:40.440Z,212.13
2024-05-09T17:44:10.854Z,208.55
2024-05-09T17:46:38.901Z,207.13
2024-05-09T17:49:09.312Z,193.23
2024-05-09T17:51:37.238Z,198.10
2024-05-09T17:54:07.643Z,211.13
2024-05-09T17:56:37.974Z,204.65
2024-05-09T17:59:11.370Z,202.38
2024-05-09T18:01:39.459Z,207.00
2024-05-09T18:04:10.171Z,208.00
2024-05-09T18:06:38.119Z,205.88
2024-05-09T18:09:08.769Z,209.63
2024-05-09T18:11:40.676Z,206.15
2024-05-09T18:14:11.249Z,199.17
2024-05-09T18:16:38.991Z,200.02
2024-05-09T18:19:11.567Z,202.25
2024-05-09T18:21:39.448Z,197.25
2024-05-09T18:24:10.307Z,199.57
2024-05-09T18:26:41.410Z,194.40
2024-05-09T18:29:13.967Z,188.93
2024-05-09T18:31:42.333Z,197.15
2024-05-09T18:34:15.522Z,196.88
2024-05-09T18:36:46.939Z,201.32
2024-05-09T18:39:17.516Z,185.67
2024-05-09T18:41:47.903Z,198.77
2024-05-09T18:44:18.597Z,200.57
2024-05-09T18:46:48.706Z,196.77
2024-05-09T18:49:21.809Z,205.38
2024-05-09T18:51:49.740Z,189.90
2024-05-09T18:54:20.066Z,201.45
2024-05-09T18:56:50.443Z,199.18
2024-05-09T18:59:21.102Z,199.70
2024-05-09T19:01:49.124Z,204.23
2024-05-09T19:04:20.107Z,190.93
2024-05-09T19:06:48.264Z,196.57
2024-05-09T19:09:20.999Z,191.60
2024-05-09T19:11:51.473Z,177.80
2024-05-09T19:14:25.157Z,198.15
2024-05-09T19:16:53.036Z,184.23
2024-05-09T19:19:28.063Z,193.48
2024-05-09T19:21:58.532Z,195.50
2024-05-09T19:24:28.878Z,193.52
2024-05-09T19:26:59.410Z,196.88
2024-05-09T19:29:29.772Z,190.43
2024-05-09T19:31:57.474Z,188.05
2024-05-09T19:34:27.985Z,194.80
2024-05-09T19:36:55.905Z,187.23
2024-05-09T19:39:28.622Z,192.13
2024-05-09T19:41:59.021Z,176.73
2024-05-09T19:44:29.408Z,189.77
2024-05-09T19:46:57.079Z,188.35
2024-05-09T19:49:27.537Z,180.93
2024-05-09T19:51:55.364Z,182.55
2024-05-09T19:54:25.779Z,181.00
2024-05-09T19:56:54.034Z,187.30
2024-05-09T19:59:27.084Z,186.50
2024-05-09T20:01:54.890Z,175.57
2024-05-09T20:04:25.515Z,191.32
2024-05-09T20:06:53.670Z,189.17
2024-05-09T20:09:24.024Z,189.27
2024-05-09T20:11:51.830Z,186.45
2024-05-09T20:14:22.454Z,182.30
2024-05-09T20:16:52.833Z,180.45
2024-05-09T20:19:23.334Z,180.30
2024-05-09T20:21:51.131Z,184.50
2024-05-09T20:24:21.523Z,192.45
2024-05-09T20:26:51.354Z,190.60
2024-05-09T20:29:21.675Z,184.10
2024-05-09T20:31:52.144Z,178.90
2024-05-09T20:34:22.517Z,178.65
2024-05-09T20:36:50.270Z,181.73
2024-05-09T20:39:27.147Z,182.73
2024-05-09T20:41:55.186Z,179.60
2024-05-09T20:44:25.665Z,175.20
2024-05-09T20:46:56.019Z,185.70
2024-05-09T20:49:26.645Z,190.60
2024-05-09T20:51:54.514Z,178.30
2024-05-09T20:54:24.862Z,187.50
2024-05-09T20:56:54.847Z,178.67
2024-05-09T20:59:25.282Z,183.07
2024-05-09T21:01:55.801Z,184.68
2024-05-09T21:04:26.293Z,183.27
2024-05-09T21:06:54.240Z,184.80
2024-05-09T21:09:25.857Z,171.27
2024-05-09T21:11:53.573Z,177.98
2024-05-09T21:14:23.938Z,180.68
2024-05-09T21:16:54.400Z,174.05
2024-05-09T21:19:25.113Z,171.82
2024-05-09T21:21:53.473Z,173.07
2024-05-09T21:24:24.003Z,170.18
2024-05-09T21:26:54.207Z,179.27
2024-05-09T21:29:24.518Z,168.20
2024-05-09T21:31:54.923Z,177.02
2024-05-09T21:34:25.389Z,161.30
2024-05-09T21:36:53.110Z,171.82
2024-05-09T21:39:23.814Z,173.45
2024-05-09T21:41:51.835Z,162.20
2024-05-09T21:44:22.169Z,169.32
2024-05-09T21:46:49.905Z,163.33
2024-05-09T21:49:23.270Z,176.35
2024-05-09T21:51:50.984Z,172.68
2024-05-09T21:54:21.566Z,161.90
2024-05-09T21:56:49.327Z,166.30
2024-05-09T21:59:19.655Z,163.50
2024-05-09T22:01:47.527Z,171.02
2024-05-09T22:04:18.225Z,173.00
2024-05-09T22:06:48.684Z,162.40
2024-05-09T22:09:19.179Z,170.20
2024-05-09T22:11:52.032Z,173.97
2024-05-09T22:14:23.394Z,170.10
2024-05-09T22:16:51.227Z,166.75
2024-05-09T22:19:21.813Z,172.00
2024-05-09T22:21:52.227Z,173.25
2024-05-09T22:24:25.005Z,155.40
2024-05-09T22:26:55.218Z,161.38
2024-05-09T22:29:25.626Z,174.65
2024-05-09T22:31:53.317Z,167.65
2024-05-09T22:34:23.844Z,173.00
2024-05-09T22:36:57.370Z,168.43
2024-05-09T22:39:27.944Z,165.98
2024-05-09T22:41:55.632Z,169.77
2024-05-09T22:44:25.951Z,158.80
2024-05-09T22:46:53.718Z,172.02
2024-05-09T22:49:24.080Z,163.50
2024-05-09T22:51:51.830Z,159.30
2024-05-09T22:54:24.797Z,159.88
2024-05-09T22:56:52.606Z,162.23
2024-05-09T22:59:22.887Z,163.70
2024-05-09T23:01:50.714Z,163.47
2024-05-09T23:04:21.303Z,165.00
2024-05-09T23:06:51.591Z,158.18
2024-05-09T23:09:26.627Z,167.45
2024-05-09T23:11:55.109Z,168.13
2024-05-09T23:14:25.503Z,153.17
2024-05-09T23:16:55.674Z,157.07
2024-05-09T23:19:26.149Z,166.48
2024-05-09T23:21:53.902Z,155.52
2024-05-09T23:24:26.979Z,162.25
2024-05-09T23:26:54.652Z,155.90
2024-05-09T23:29:27.902Z,156.30
2024-05-09T23:31:55.622Z,161.07
2024-05-09T23:34:26.094Z,146.23
2024-05-09T23:36:53.874Z,155.00
2024-05-09T23:39:29.457Z,152.77
2024-05-09T23:41:57.168Z,149.75
2024-05-09T23:44:27.553Z,161.65
2024-05-09T23:46:55.307Z,152.45
2024-05-09T23:49:25.950Z,152.68
2024-05-09T23:51:53.721Z,147.47
2024-05-09T23:54:24.079Z,150.13
2024-05-09T23:56:54.435Z,155.00
2024-05-09T23:59:24.831Z,151.45
